Time;durP1;ratioP1;P1;durP2;ratioP2;P2;SDS_P1;SDS_P2;PMS_P1;PMS_P2;Temp;Humidity;BMP_temperature;BMP_pressure;BME280_temperature;BME280_humidity;BME280_pressure;Samples;Min_cycle;Max_cycle;Signal;HPM_P1;HPM_P2
2023/08/13 00:00:08;;;;;;;15.07;2.20;;;16.10;99.90;;;;;;6196507;23;20020;-73
2023/08/13 00:02:33;;;;;;;7.93;1.40;;;16.10;99.90;;;;;;6196842;23;20016;-73
2023/08/13 00:04:59;;;;;;;11.55;1.88;;;16.10;99.90;;;;;;6196457;23;20485;-73
2023/08/13 00:07:25;;;;;;;15.07;1.85;;;16.20;99.90;;;;;;6196829;23;20103;-73
2023/08/13 00:09:50;;;;;;;12.15;2.08;;;16.10;99.90;;;;;;6197099;23;20005;-73
2023/08/13 00:12:16;;;;;;;17.40;1.75;;;16.10;99.90;;;;;;6198424;23;20016;-73
2023/08/13 00:14:41;;;;;;;14.18;2.10;;;16.10;99.90;;;;;;6195914;23;20008;-73
2023/08/13 00:17:08;;;;;;;12.68;1.92;;;16.00;99.90;;;;;;6195913;23;20076;-73
2023/08/13 00:19:33;;;;;;;9.43;1.65;;;16.00;99.90;;;;;;6194788;23;20000;-73
2023/08/13 00:21:59;;;;;;;15.30;1.98;;;16.00;99.90;;;;;;6170359;23;20023;-73
2023/08/13 00:24:25;;;;;;;8.93;1.77;;;16.00;99.90;;;;;;6192314;23;20015;-73
2023/08/13 00:26:50;;;;;;;11.27;1.60;;;16.00;99.90;;;;;;6192770;23;20012;-73
2023/08/13 00:29:16;;;;;;;10.73;1.45;;;16.00;99.90;;;;;;6166222;23;20441;-73
2023/08/13 00:31:41;;;;;;;17.00;2.03;;;16.00;99.90;;;;;;6196998;23;20012;-73
2023/08/13 00:34:07;;;;;;;13.07;2.10;;;16.00;99.90;;;;;;6168463;23;20503;-73
2023/08/13 00:36:32;;;;;;;11.02;2.10;;;16.00;99.90;;;;;;6196906;23;20081;-73
2023/08/13 00:38:58;;;;;;;17.73;1.92;;;16.00;99.90;;;;;;6197586;23;20034;-73
2023/08/13 00:41:24;;;;;;;12.15;1.77;;;16.00;99.90;;;;;;6196612;23;20005;-73
2023/08/13 00:43:49;;;;;;;17.52;2.05;;;16.10;99.90;;;;;;6196680;23;20386;-73
2023/08/13 00:46:15;;;;;;;12.65;2.40;;;16.10;99.90;;;;;;6196372;23;20024;-73
2023/08/13 00:48:41;;;;;;;16.95;1.92;;;16.20;99.90;;;;;;6195778;23;20012;-73
2023/08/13 00:51:10;;;;;;;15.07;2.13;;;16.30;99.90;;;;;;6196105;23;20005;-73
2023/08/13 00:53:45;;;;;;;16.05;1.98;;;16.30;99.90;;;;;;6196334;23;20000;-73
2023/08/13 00:56:12;;;;;;;15.80;2.20;;;16.50;99.90;;;;;;6197467;23;20008;-73
2023/08/13 00:58:37;;;;;;;8.98;1.70;;;16.60;99.90;;;;;;6197839;23;20428;-73
2023/08/13 01:01:03;;;;;;;11.60;2.00;;;16.60;99.90;;;;;;6196942;23;20004;-73
2023/08/13 01:03:28;;;;;;;8.70;1.70;;;16.60;99.90;;;;;;6193292;23;20232;-73
2023/08/13 01:06:00;;;;;;;12.40;1.90;;;16.60;99.90;;;;;;6191645;23;20391;-73
2023/08/13 01:09:15;;;;;;;14.30;1.90;;;16.60;99.90;;;;;;6195878;23;20012;-73
2023/08/13 01:12:02;;;;;;;7.50;1.80;;;16.60;99.90;;;;;;6182689;23;20034;-73
2023/08/13 01:14:39;;;;;;;17.30;2.17;;;16.70;99.90;;;;;;6195985;23;20013;-73
2023/08/13 01:17:06;;;;;;;7.60;1.40;;;16.80;99.90;;;;;;6196819;23;20079;-73
2023/08/13 01:19:32;;;;;;;11.13;1.75;;;16.80;99.90;;;;;;6193423;23;20005;-73
2023/08/13 01:21:57;;;;;;;10.77;2.00;;;16.90;99.90;;;;;;6196415;23;20015;-73
2023/08/13 01:24:23;;;;;;;14.95;1.98;;;16.90;99.90;;;;;;6196803;23;20004;-73
2023/08/13 01:27:00;;;;;;;10.07;1.67;;;17.00;99.90;;;;;;6195667;23;20096;-73
2023/08/13 01:29:54;;;;;;;10.63;1.60;;;17.00;99.90;;;;;;6196631;23;20005;-73
2023/08/13 01:32:24;;;;;;;13.05;1.98;;;17.00;99.90;;;;;;6168153;23;20112;-73
2023/08/13 01:34:51;;;;;;;12.43;1.60;;;17.00;99.90;;;;;;6191299;23;20009;-73
2023/08/13 01:37:19;;;;;;;10.25;1.55;;;17.10;99.90;;;;;;6192473;23;20091;-73
2023/08/13 01:39:44;;;;;;;14.77;2.10;;;17.10;99.90;;;;;;6195387;23;20009;-73
2023/08/13 01:42:11;;;;;;;12.57;1.58;;;17.10;99.90;;;;;;6195753;23;20088;-73
2023/08/13 01:44:37;;;;;;;11.98;1.70;;;17.20;99.90;;;;;;6194487;23;20016;-73
2023/08/13 01:47:04;;;;;;;11.82;2.22;;;17.10;99.90;;;;;;6195425;23;19997;-73
2023/08/13 01:49:31;;;;;;;8.23;1.52;;;17.20;99.90;;;;;;6196198;23;20362;-73
2023/08/13 01:51:57;;;;;;;15.93;1.63;;;17.20;99.90;;;;;;6189987;23;20132;-73
2023/08/13 01:54:22;;;;;;;7.80;1.48;;;17.30;99.90;;;;;;6190767;23;20291;-73
2023/08/13 01:56:48;;;;;;;10.13;1.50;;;17.30;99.90;;;;;;6192020;23;20427;-73
2023/08/13 01:59:15;;;;;;;11.63;1.50;;;17.30;99.90;;;;;;6188289;23;20003;-73
2023/08/13 02:01:40;;;;;;;9.45;1.55;;;17.30;99.90;;;;;;6190035;23;20035;-73
2023/08/13 02:04:06;;;;;;;10.90;1.40;;;17.30;99.90;;;;;;6166811;23;20012;-73
2023/08/13 02:06:35;;;;;;;10.13;1.45;;;17.20;99.90;;;;;;6194069;23;20004;-73
2023/08/13 02:09:01;;;;;;;10.88;1.58;;;17.20;99.90;;;;;;6195925;23;20067;-73
2023/08/13 02:11:26;;;;;;;8.10;1.70;;;17.20;99.90;;;;;;6195670;23;20075;-73
2023/08/13 02:13:52;;;;;;;12.23;1.75;;;17.30;99.90;;;;;;6196014;23;20329;-73
2023/08/13 02:16:18;;;;;;;11.48;1.52;;;17.20;99.90;;;;;;6192460;23;20348;-73
2023/08/13 02:18:43;;;;;;;14.73;1.83;;;17.20;99.90;;;;;;6190939;23;20011;-73
2023/08/13 02:21:09;;;;;;;14.05;2.13;;;17.20;99.90;;;;;;6190542;23;20123;-73
2023/08/13 02:23:34;;;;;;;10.52;1.50;;;17.20;99.90;;;;;;6191672;23;20009;-73
2023/08/13 02:26:00;;;;;;;11.85;1.92;;;17.20;99.90;;;;;;6192050;23;20052;-73
2023/08/13 02:28:26;;;;;;;21.48;1.75;;;17.10;99.90;;;;;;6196417;23;20297;-73
2023/08/13 02:30:51;;;;;;;10.68;2.03;;;17.10;99.90;;;;;;6192928;23;20019;-73
2023/08/13 02:33:17;;;;;;;9.45;1.95;;;17.00;99.90;;;;;;6194280;23;20039;-73
2023/08/13 02:35:43;;;;;;;13.95;2.03;;;16.90;99.90;;;;;;6193412;23;20032;-73
2023/08/13 02:38:09;;;;;;;13.15;1.50;;;16.70;99.90;;;;;;6195497;23;20000;-73
2023/08/13 02:40:35;;;;;;;8.40;1.52;;;16.70;99.90;;;;;;6195075;23;20080;-73
2023/08/13 02:43:02;;;;;;;11.80;1.73;;;16.50;99.90;;;;;;6195938;23;20100;-73
2023/08/13 02:45:27;;;;;;;14.13;1.80;;;16.60;99.90;;;;;;6168182;23;20405;-72
2023/08/13 02:47:53;;;;;;;10.00;1.90;;;16.50;99.90;;;;;;6197674;23;20509;-73
2023/08/13 02:50:18;;;;;;;11.45;2.03;;;16.40;99.90;;;;;;6196588;23;20461;-73
2023/08/13 02:52:44;;;;;;;9.45;1.65;;;16.30;99.90;;;;;;6197275;23;20011;-73
2023/08/13 02:55:10;;;;;;;17.25;1.98;;;16.30;99.90;;;;;;6194152;23;20012;-73
2023/08/13 02:57:35;;;;;;;10.27;1.77;;;16.20;99.90;;;;;;6197339;23;20005;-73
2023/08/13 03:00:02;;;;;;;11.35;1.80;;;16.30;99.90;;;;;;6197535;23;20081;-73
2023/08/13 03:02:27;;;;;;;14.75;2.15;;;16.20;99.90;;;;;;6196936;23;20362;-73
2023/08/13 03:04:53;;;;;;;10.90;2.00;;;16.20;99.90;;;;;;6196380;23;20037;-73
2023/08/13 03:07:18;;;;;;;12.63;2.00;;;16.20;99.90;;;;;;6196541;23;20500;-73
2023/08/13 03:09:44;;;;;;;16.85;1.95;;;16.20;99.90;;;;;;6197285;23;20248;-73
2023/08/13 03:12:10;;;;;;;18.98;2.25;;;16.30;99.90;;;;;;6170818;23;20524;-73
2023/08/13 03:14:36;;;;;;;10.40;1.55;;;16.30;99.90;;;;;;6197555;23;20076;-73
2023/08/13 03:17:01;;;;;;;12.45;1.80;;;16.40;99.90;;;;;;6198328;23;20008;-73
2023/08/13 03:19:27;;;;;;;20.65;2.15;;;16.40;99.90;;;;;;6196615;23;20147;-73
2023/08/13 03:21:52;;;;;;;15.00;2.00;;;16.40;99.90;;;;;;6197579;23;20020;-73
2023/08/13 03:24:18;;;;;;;16.63;2.67;;;16.50;99.90;;;;;;6198779;23;20094;-73
2023/08/13 03:26:43;;;;;;;12.88;2.03;;;16.50;99.90;;;;;;6198324;23;20026;-72
2023/08/13 03:29:09;;;;;;;16.50;1.80;;;16.60;99.90;;;;;;6197575;23;20281;-73
2023/08/13 03:31:35;;;;;;;12.55;1.98;;;16.60;99.90;;;;;;6170532;23;20005;-74
2023/08/13 03:34:00;;;;;;;8.13;1.60;;;16.60;99.90;;;;;;6168139;23;20092;-74
2023/08/13 03:36:26;;;;;;;13.23;2.35;;;16.70;99.90;;;;;;6197783;23;20361;-73
2023/08/13 03:38:51;;;;;;;15.38;1.50;;;16.70;99.90;;;;;;6197092;23;20004;-73
2023/08/13 03:41:17;;;;;;;13.07;1.88;;;16.70;99.90;;;;;;6198007;23;20384;-73
2023/08/13 03:43:43;;;;;;;13.23;1.52;;;16.70;99.90;;;;;;6198422;23;20019;-73
2023/08/13 03:46:08;;;;;;;8.65;1.33;;;16.70;99.90;;;;;;6196697;23;20008;-73
2023/08/13 03:48:34;;;;;;;11.70;1.77;;;16.70;99.90;;;;;;6196884;23;20321;-73
2023/08/13 03:51:04;;;;;;;8.27;1.58;;;16.70;99.90;;;;;;6195586;23;20001;-73
2023/08/13 03:53:30;;;;;;;12.60;1.63;;;16.70;99.90;;;;;;6197066;23;20286;-73
2023/08/13 03:55:56;;;;;;;15.00;1.92;;;16.70;99.90;;;;;;6197340;23;20243;-73
2023/08/13 03:58:21;;;;;;;10.55;1.60;;;16.60;99.90;;;;;;6197434;23;20009;-73
2023/08/13 04:00:47;;;;;;;9.10;1.80;;;16.60;99.90;;;;;;6196705;23;20396;-73
2023/08/13 04:03:12;;;;;;;7.28;1.40;;;16.50;99.90;;;;;;6198145;23;20075;-74
2023/08/13 04:05:38;;;;;;;13.98;2.08;;;16.60;99.90;;;;;;6196169;23;20333;-74
2023/08/13 04:08:04;;;;;;;12.90;1.70;;;16.60;99.90;;;;;;6197302;23;20013;-74
2023/08/13 04:10:29;;;;;;;16.10;1.70;;;16.70;99.90;;;;;;6195350;23;20031;-74
2023/08/13 04:12:55;;;;;;;13.88;1.90;;;16.80;99.90;;;;;;6198589;23;20286;-73
2023/08/13 04:15:22;;;;;;;13.27;1.60;;;16.80;99.90;;;;;;6196418;23;20004;-73
2023/08/13 04:17:48;;;;;;;14.98;2.40;;;16.70;99.90;;;;;;6192356;23;20004;-73
2023/08/13 04:20:14;;;;;;;9.68;1.50;;;16.70;99.90;;;;;;6192466;23;20441;-74
2023/08/13 04:22:40;;;;;;;13.15;1.88;;;16.70;99.90;;;;;;6195614;23;20019;-74
2023/08/13 04:25:07;;;;;;;8.00;1.40;;;16.60;99.90;;;;;;6196810;23;20289;-73
2023/08/13 04:27:33;;;;;;;12.23;1.65;;;16.60;99.90;;;;;;6197786;23;20103;-74
2023/08/13 04:29:58;;;;;;;13.82;2.38;;;16.50;99.90;;;;;;6196136;23;20062;-74
2023/08/13 04:32:25;;;;;;;12.18;1.85;;;16.60;99.90;;;;;;6191602;23;20065;-74
2023/08/13 04:34:51;;;;;;;17.13;2.30;;;16.50;99.90;;;;;;6164396;23;20128;-73
2023/08/13 04:37:16;;;;;;;15.18;2.00;;;16.50;99.90;;;;;;6193657;23;20032;-73
2023/08/13 04:39:42;;;;;;;10.27;1.77;;;16.60;99.90;;;;;;6195100;23;20004;-74
2023/08/13 04:42:07;;;;;;;12.20;1.70;;;16.60;99.90;;;;;;6196696;23;20115;-73
2023/08/13 04:44:33;;;;;;;12.93;2.08;;;16.60;99.90;;;;;;6196321;23;20009;-73
2023/08/13 04:46:58;;;;;;;12.95;2.40;;;16.70;99.90;;;;;;6196486;23;20479;-73
2023/08/13 04:49:24;;;;;;;11.95;2.65;;;16.60;99.90;;;;;;6196656;23;20004;-73
2023/08/13 04:51:50;;;;;;;14.30;2.47;;;16.60;99.90;;;;;;6196996;23;20384;-74
2023/08/13 04:54:15;;;;;;;14.77;2.47;;;16.50;99.90;;;;;;6197116;23;20399;-73
2023/08/13 04:56:41;;;;;;;15.63;2.92;;;16.50;99.90;;;;;;6197310;23;20103;-73
2023/08/13 04:59:06;;;;;;;13.25;2.55;;;16.50;99.90;;;;;;6197093;23;20001;-73
2023/08/13 05:01:32;;;;;;;12.55;2.60;;;16.50;99.90;;;;;;6195222;23;20424;-73
2023/08/13 05:03:58;;;;;;;16.67;2.92;;;16.50;99.90;;;;;;6191238;23;20262;-73
2023/08/13 05:06:24;;;;;;;11.70;2.85;;;16.50;99.90;;;;;;6192155;23;20001;-73
2023/08/13 05:08:49;;;;;;;12.60;2.63;;;16.50;99.90;;;;;;6195482;23;20009;-73
2023/08/13 05:11:15;;;;;;;15.63;2.28;;;16.60;99.90;;;;;;6196281;23;20342;-73
2023/08/13 05:13:40;;;;;;;13.95;2.70;;;16.70;99.90;;;;;;6170108;23;20148;-72
2023/08/13 05:16:06;;;;;;;16.77;2.58;;;16.70;99.90;;;;;;6196942;23;20000;-73
2023/08/13 05:18:32;;;;;;;18.50;2.65;;;16.80;99.90;;;;;;6194776;23;20012;-73
2023/08/13 05:20:57;;;;;;;14.35;2.42;;;16.90;99.90;;;;;;6194586;23;20417;-73
2023/08/13 05:23:23;;;;;;;14.95;2.60;;;16.90;99.90;;;;;;6192956;23;20455;-73
2023/08/13 05:25:48;;;;;;;14.70;2.88;;;17.00;99.90;;;;;;6192924;23;20036;-73
2023/08/13 05:28:14;;;;;;;16.88;2.85;;;17.00;99.90;;;;;;6168077;23;20228;-73
2023/08/13 05:30:40;;;;;;;17.73;2.47;;;17.00;99.90;;;;;;6195976;23;20000;-73
2023/08/13 05:33:06;;;;;;;20.20;2.47;;;17.10;99.90;;;;;;6196452;23;20078;-73
2023/08/13 05:35:32;;;;;;;17.33;2.50;;;17.20;99.90;;;;;;6194820;23;20495;-73
2023/08/13 05:37:57;;;;;;;13.13;2.08;;;17.20;99.90;;;;;;6193918;23;20008;-73
2023/08/13 05:40:23;;;;;;;17.90;2.35;;;17.30;99.90;;;;;;6164551;23;20074;-73
2023/08/13 05:42:49;;;;;;;15.05;2.60;;;17.30;99.90;;;;;;6196826;23;20073;-73
2023/08/13 05:45:15;;;;;;;10.98;2.20;;;17.30;99.90;;;;;;6195949;23;20000;-73
2023/08/13 05:47:41;;;;;;;15.23;2.92;;;17.40;99.90;;;;;;6197110;23;20024;-73
2023/08/13 05:50:07;;;;;;;13.80;1.92;;;17.60;99.90;;;;;;6194727;23;20005;-73
2023/08/13 05:52:33;;;;;;;18.55;2.25;;;17.70;99.90;;;;;;6170100;23;20332;-73
2023/08/13 05:54:59;;;;;;;14.50;2.58;;;17.80;99.90;;;;;;6196356;23;20071;-73
2023/08/13 05:57:24;;;;;;;14.45;1.92;;;17.80;99.90;;;;;;6166371;23;20099;-73
2023/08/13 05:59:50;;;;;;;11.38;2.13;;;17.80;99.90;;;;;;6191809;23;20014;-73
2023/08/13 06:02:16;;;;;;;16.58;2.30;;;17.80;99.90;;;;;;6194256;23;20012;-73
2023/08/13 06:04:41;;;;;;;16.58;2.60;;;17.80;99.90;;;;;;6193339;23;20016;-73
2023/08/13 06:07:07;;;;;;;17.88;2.30;;;17.80;99.90;;;;;;6195446;23;20349;-72
2023/08/13 06:09:32;;;;;;;17.88;2.22;;;17.90;99.90;;;;;;6196057;23;20107;-72
2023/08/13 06:11:58;;;;;;;15.13;2.95;;;18.00;99.90;;;;;;6195957;23;20035;-72
2023/08/13 06:14:24;;;;;;;15.38;2.17;;;18.10;99.90;;;;;;6191725;23;20255;-72
2023/08/13 06:16:49;;;;;;;18.38;1.98;;;18.20;99.90;;;;;;6193000;23;20164;-72
2023/08/13 06:19:15;;;;;;;19.98;2.95;;;18.30;99.90;;;;;;6192371;23;20118;-72
2023/08/13 06:21:40;;;;;;;13.82;2.13;;;18.40;99.90;;;;;;6164765;23;20009;-74
2023/08/13 06:24:06;;;;;;;16.98;2.58;;;18.50;99.90;;;;;;6192468;23;20039;-73
2023/08/13 06:26:32;;;;;;;17.85;2.67;;;18.50;99.90;;;;;;6192837;23;20522;-73
2023/08/13 06:28:58;;;;;;;15.40;2.40;;;18.30;99.90;;;;;;6192536;23;20004;-72
2023/08/13 06:31:24;;;;;;;14.63;2.28;;;18.30;99.90;;;;;;6191758;23;20020;-74
2023/08/13 06:33:49;;;;;;;14.57;2.28;;;18.30;99.90;;;;;;6195605;23;20084;-72
2023/08/13 06:36:15;;;;;;;13.13;1.95;;;18.20;99.90;;;;;;6194315;23;20032;-73
2023/08/13 06:38:41;;;;;;;12.82;1.77;;;18.30;99.90;;;;;;6193182;23;20016;-73
2023/08/13 06:41:06;;;;;;;11.48;1.77;;;18.20;99.90;;;;;;6191648;23;20472;-72
2023/08/13 06:43:33;;;;;;;11.23;2.08;;;18.10;99.90;;;;;;6191928;23;20039;-72
2023/08/13 06:46:00;;;;;;;9.48;1.58;;;18.20;99.90;;;;;;6191418;23;20329;-72
2023/08/13 06:48:26;;;;;;;16.83;1.85;;;18.50;99.90;;;;;;6196336;23;20368;-74
2023/08/13 06:50:56;;;;;;;16.20;2.47;;;18.70;99.90;;;;;;6194257;23;20433;-74
2023/08/13 06:53:22;;;;;;;14.40;2.13;;;18.80;99.90;;;;;;6195940;23;20317;-73
2023/08/13 06:55:48;;;;;;;12.50;1.92;;;18.80;99.90;;;;;;6195260;23;20016;-72
2023/08/13 06:58:14;;;;;;;12.98;2.20;;;18.70;99.90;;;;;;6196500;23;20008;-72
2023/08/13 07:00:40;;;;;;;13.95;2.30;;;19.10;99.90;;;;;;6193896;23;20367;-72
2023/08/13 07:03:09;;;;;;;12.18;1.55;;;19.50;99.90;;;;;;6192173;23;20019;-72
2023/08/13 07:05:42;;;;;;;11.05;1.67;;;19.70;99.90;;;;;;6188549;23;20369;-74
2023/08/13 07:08:09;;;;;;;5.97;1.17;;;19.60;99.90;;;;;;6192249;23;20488;-74
2023/08/13 07:10:35;;;;;;;12.95;2.17;;;19.60;99.90;;;;;;6194713;23;20372;-72
2023/08/13 07:13:00;;;;;;;12.90;1.90;;;19.60;99.90;;;;;;6189868;23;20008;-72
2023/08/13 07:15:26;;;;;;;12.10;2.08;;;19.80;99.90;;;;;;6183517;23;20008;-72
2023/08/13 07:17:52;;;;;;;13.38;1.77;;;20.20;99.90;;;;;;6183534;23;20059;-73
2023/08/13 07:20:18;;;;;;;15.00;2.10;;;20.60;99.90;;;;;;6177574;23;20082;-75
2023/08/13 07:22:45;;;;;;;11.02;1.77;;;21.00;99.90;;;;;;6181183;23;20066;-75
2023/08/13 07:25:11;;;;;;;7.70;1.25;;;21.30;99.90;;;;;;6181603;23;20713;-72
2023/08/13 07:27:39;;;;;;;8.07;1.48;;;21.20;99.90;;;;;;6180345;23;20471;-74
2023/08/13 07:30:07;;;;;;;10.98;1.73;;;21.10;99.90;;;;;;6186321;23;20040;-75
2023/08/13 07:32:37;;;;;;;13.30;1.90;;;21.00;99.90;;;;;;6187399;23;20038;-74
2023/08/13 07:35:03;;;;;;;11.93;1.70;;;20.90;99.90;;;;;;6191542;23;20435;-74
2023/08/13 07:37:31;;;;;;;9.10;1.65;;;21.10;99.90;;;;;;6192211;23;20087;-74
2023/08/13 07:39:57;;;;;;;9.25;1.80;;;21.20;99.90;;;;;;6194885;23;20004;-74
2023/08/13 07:42:22;;;;;;;8.43;1.52;;;21.30;99.90;;;;;;6196286;23;20043;-75
2023/08/13 07:44:48;;;;;;;9.88;1.63;;;21.30;99.90;;;;;;6195875;23;20340;-74
2023/08/13 07:47:14;;;;;;;11.43;1.70;;;21.70;99.90;;;;;;6197915;23;20042;-74
2023/08/13 07:49:40;;;;;;;11.43;1.90;;;22.10;99.90;;;;;;6196382;23;20011;-74
2023/08/13 07:52:05;;;;;;;5.22;0.95;;;22.40;99.90;;;;;;6197906;23;20433;-74
2023/08/13 07:54:31;;;;;;;6.68;1.90;;;22.20;99.90;;;;;;6195052;23;20054;-74
2023/08/13 07:56:57;;;;;;;6.93;1.23;;;21.80;99.90;;;;;;6192628;23;20410;-74
2023/08/13 07:59:23;;;;;;;10.27;1.58;;;21.70;99.90;;;;;;6189559;23;20076;-74
2023/08/13 08:01:49;;;;;;;8.73;1.25;;;21.70;99.90;;;;;;6190650;23;20017;-74
2023/08/13 08:04:15;;;;;;;6.75;1.23;;;21.90;99.90;;;;;;6189026;23;20503;-74
2023/08/13 08:06:40;;;;;;;7.13;1.40;;;21.80;99.90;;;;;;6189958;23;20015;-73
2023/08/13 08:09:06;;;;;;;10.68;1.17;;;21.60;99.90;;;;;;6189230;23;20557;-74
2023/08/13 08:11:32;;;;;;;9.55;1.23;;;21.30;99.90;;;;;;6192774;23;20149;-74
2023/08/13 08:13:58;;;;;;;5.35;0.95;;;21.20;99.90;;;;;;6191258;23;20056;-74
2023/08/13 08:16:23;;;;;;;8.30;0.98;;;21.00;99.90;;;;;;6165450;23;20012;-74
2023/08/13 08:18:49;;;;;;;8.10;1.15;;;21.40;99.90;;;;;;6191063;23;20535;-74
2023/08/13 08:21:15;;;;;;;9.05;1.20;;;22.20;99.90;;;;;;6190487;23;20036;-74
2023/08/13 08:23:40;;;;;;;9.18;1.05;;;22.90;99.90;;;;;;6193490;23;20087;-73
2023/08/13 08:26:06;;;;;;;7.95;1.48;;;23.30;99.90;;;;;;6192449;23;20001;-73
2023/08/13 08:28:32;;;;;;;7.68;1.05;;;24.20;99.90;;;;;;6188747;23;20147;-75
2023/08/13 08:30:58;;;;;;;4.70;1.00;;;24.00;99.90;;;;;;6192236;23;20032;-74
2023/08/13 08:33:23;;;;;;;6.47;1.13;;;23.80;99.90;;;;;;6190747;23;20102;-74
2023/08/13 08:35:49;;;;;;;4.20;0.98;;;23.50;99.90;;;;;;6192017;23;20024;-74
2023/08/13 08:38:15;;;;;;;5.38;0.85;;;23.00;99.90;;;;;;6170379;23;20501;-74
2023/08/13 08:40:47;;;;;;;7.18;0.95;;;23.20;99.90;;;;;;6192806;23;20067;-73
2023/08/13 08:43:13;;;;;;;6.05;1.25;;;23.50;99.90;;;;;;6189732;23;20012;-73
2023/08/13 08:45:40;;;;;;;4.50;0.95;;;23.80;99.90;;;;;;6189221;23;20001;-73
2023/08/13 08:48:10;;;;;;;4.75;0.88;;;24.10;99.90;;;;;;6191025;23;20009;-73
2023/08/13 08:50:37;;;;;;;4.38;0.95;;;24.50;99.90;;;;;;6187777;23;20035;-73
2023/08/13 08:53:03;;;;;;;4.35;0.98;;;25.00;99.90;;;;;;6191823;23;20432;-73
2023/08/13 08:55:29;;;;;;;5.72;0.88;;;25.40;99.90;;;;;;6193708;23;20033;-73
2023/08/13 08:57:54;;;;;;;3.90;0.88;;;26.60;99.90;;;;;;6196340;23;20492;-73
2023/08/13 09:00:20;;;;;;;4.68;0.88;;;26.00;99.90;;;;;;6193771;23;20009;-72
2023/08/13 09:02:46;;;;;;;7.35;0.90;;;25.60;99.90;;;;;;6191757;23;20066;-72
2023/08/13 09:05:12;;;;;;;5.80;1.00;;;24.90;99.90;;;;;;6191308;23;20077;-73
2023/08/13 09:07:44;;;;;;;5.47;1.05;;;24.20;99.90;;;;;;6196527;23;20057;-73
2023/08/13 09:10:10;;;;;;;3.53;1.00;;;24.70;99.90;;;;;;6197887;23;20012;-72
2023/08/13 09:12:41;;;;;;;8.30;1.35;;;25.10;99.90;;;;;;6200142;23;20005;-73
2023/08/13 09:15:11;;;;;;;7.78;1.17;;;24.10;99.90;;;;;;6197239;23;20004;-73
2023/08/13 09:17:38;;;;;;;8.10;1.20;;;23.10;99.90;;;;;;6197660;23;20090;-73
2023/08/13 09:20:18;;;;;;;6.32;1.30;;;22.30;99.90;;;;;;6196087;23;20011;-73
2023/08/13 09:22:48;;;;;;;5.72;0.82;;;21.00;99.90;;;;;;6196042;23;20359;-74
2023/08/13 09:25:14;;;;;;;6.25;1.10;;;20.10;99.90;;;;;;6196379;23;20001;-73
2023/08/13 09:27:41;;;;;;;3.95;1.15;;;19.30;99.90;;;;;;6196817;23;20020;-73
2023/08/13 09:30:14;;;;;;;3.05;0.75;;;19.30;99.90;;;;;;6195241;23;20063;-73
2023/08/13 09:32:41;;;;;;;2.50;0.70;;;19.30;99.90;;;;;;6190695;23;20082;-73
2023/08/13 09:35:07;;;;;;;4.25;1.20;;;18.90;99.90;;;;;;6193878;23;20011;-73
2023/08/13 09:37:33;;;;;;;5.03;1.23;;;19.10;99.90;;;;;;6189187;23;20000;-74
2023/08/13 09:39:58;;;;;;;3.13;1.15;;;19.50;99.90;;;;;;6197173;23;20001;-73
2023/08/13 09:42:24;;;;;;;4.18;1.00;;;19.80;99.90;;;;;;6199470;23;20017;-74
2023/08/13 09:44:56;;;;;;;6.95;1.35;;;20.10;99.90;;;;;;6198966;23;20001;-74
2023/08/13 09:47:25;;;;;;;7.38;1.20;;;20.30;99.90;;;;;;6199103;23;20024;-74
2023/08/13 09:49:54;;;;;;;5.30;1.15;;;21.20;99.90;;;;;;6193778;23;20064;-74
2023/08/13 09:52:25;;;;;;;5.32;1.25;;;23.40;99.90;;;;;;6196031;23;20008;-74
2023/08/13 09:54:59;;;;;;;7.78;1.10;;;24.30;99.90;;;;;;6193798;23;20036;-74
2023/08/13 09:57:27;;;;;;;7.40;1.40;;;24.70;99.90;;;;;;6195727;23;20016;-73
2023/08/13 09:59:53;;;;;;;6.88;1.00;;;24.30;99.90;;;;;;6192716;23;20005;-75
2023/08/13 10:02:21;;;;;;;7.47;1.05;;;23.20;99.90;;;;;;6165639;23;20120;-74
2023/08/13 10:04:47;;;;;;;4.53;0.80;;;22.60;99.90;;;;;;6192366;23;20203;-72
2023/08/13 10:07:13;;;;;;;1.55;0.50;;;22.60;99.90;;;;;;6195697;23;20075;-73
2023/08/13 10:09:40;;;;;;;4.85;0.98;;;23.60;99.90;;;;;;6194376;23;20004;-74
2023/08/13 10:12:07;;;;;;;4.13;0.70;;;24.40;99.90;;;;;;6192872;23;20005;-73
2023/08/13 10:14:33;;;;;;;3.70;0.82;;;25.00;99.90;;;;;;6164475;23;20017;-73
2023/08/13 10:17:06;;;;;;;4.80;0.77;;;25.30;99.90;;;;;;6164483;23;20039;-73
2023/08/13 10:19:37;;;;;;;6.20;1.00;;;25.30;99.90;;;;;;6190129;23;20332;-72
2023/08/13 10:22:02;;;;;;;4.85;0.70;;;26.10;99.90;;;;;;6189818;23;20012;-73
2023/08/13 10:24:29;;;;;;;3.53;0.85;;;27.50;99.90;;;;;;6163525;23;20016;-72
2023/08/13 10:26:55;;;;;;;4.05;0.90;;;30.10;99.90;;;;;;6190974;23;20001;-73
2023/08/13 10:29:21;;;;;;;6.50;0.82;;;33.20;80.50;;;;;;6187827;23;20512;-73
2023/08/13 10:32:01;;;;;;;6.47;1.10;;;33.00;71.10;;;;;;6187948;23;20085;-73
2023/08/13 10:34:38;;;;;;;5.97;1.13;;;33.90;68.50;;;;;;6188519;23;20027;-73
2023/08/13 10:37:15;;;;;;;6.10;1.20;;;33.60;65.90;;;;;;6192276;23;20008;-72
2023/08/13 10:39:42;;;;;;;6.90;1.20;;;33.90;65.20;;;;;;6164776;23;20020;-73
2023/08/13 10:42:26;;;;;;;6.85;1.10;;;35.80;66.10;;;;;;6191723;23;20020;-73
2023/08/13 10:44:53;;;;;;;5.60;1.15;;;36.00;56.90;;;;;;6190167;23;20004;-73
2023/08/13 10:47:18;;;;;;;8.48;1.65;;;36.20;56.60;;;;;;6190849;23;20487;-73
2023/08/13 10:49:44;;;;;;;7.30;1.13;;;36.50;57.30;;;;;;6188159;23;20098;-73
2023/08/13 10:52:13;;;;;;;5.80;1.20;;;37.40;53.80;;;;;;6187735;23;20135;-73
2023/08/13 10:54:39;;;;;;;4.72;1.02;;;36.70;54.50;;;;;;6192700;23;20005;-71
2023/08/13 10:57:06;;;;;;;5.93;1.05;;;35.80;51.90;;;;;;6191358;23;20008;-71
2023/08/13 10:59:38;;;;;;;5.43;1.15;;;34.70;53.10;;;;;;6186745;23;20444;-70
2023/08/13 11:02:12;;;;;;;4.43;0.95;;;34.00;55.00;;;;;;6190531;23;20012;-71
2023/08/13 11:04:41;;;;;;;5.38;1.05;;;34.00;57.30;;;;;;6190724;23;20101;-71
2023/08/13 11:07:08;;;;;;;7.35;1.10;;;34.60;55.30;;;;;;6189021;23;20031;-71
2023/08/13 11:09:35;;;;;;;5.40;1.30;;;34.40;58.30;;;;;;6190829;23;20031;-71
2023/08/13 11:12:01;;;;;;;5.78;1.15;;;34.80;56.50;;;;;;6192890;23;20008;-71
2023/08/13 11:14:29;;;;;;;6.20;1.00;;;34.30;55.10;;;;;;6190454;23;20476;-71
2023/08/13 11:16:55;;;;;;;4.47;0.80;;;32.20;60.30;;;;;;6189411;23;20012;-71
2023/08/13 11:19:20;;;;;;;6.38;1.27;;;33.00;61.00;;;;;;6187428;23;20314;-71
2023/08/13 11:21:46;;;;;;;7.28;1.40;;;34.40;62.50;;;;;;6188961;23;20021;-71
2023/08/13 11:24:12;;;;;;;4.97;1.08;;;34.90;54.80;;;;;;6190691;23;20004;-72
2023/08/13 11:26:39;;;;;;;6.80;1.02;;;35.20;58.60;;;;;;6190952;23;20039;-72
2023/08/13 11:29:05;;;;;;;4.18;0.95;;;35.70;55.90;;;;;;6191216;23;20008;-72
2023/08/13 11:31:33;;;;;;;7.65;1.20;;;35.30;53.40;;;;;;6197546;23;20457;-72
2023/08/13 11:33:59;;;;;;;6.18;1.13;;;33.60;54.80;;;;;;6169855;23;20016;-72
2023/08/13 11:36:25;;;;;;;6.45;1.17;;;31.60;58.70;;;;;;6193030;23;20023;-72
2023/08/13 11:38:51;;;;;;;7.00;1.02;;;30.10;61.20;;;;;;6192366;23;20397;-71
2023/08/13 11:41:16;;;;;;;3.58;0.73;;;29.10;66.70;;;;;;6190193;23;20028;-71
2023/08/13 11:43:42;;;;;;;8.80;1.13;;;27.70;67.60;;;;;;6191889;23;20421;-71
2023/08/13 11:46:08;;;;;;;4.60;0.75;;;26.80;83.00;;;;;;6191831;23;20028;-71
2023/08/13 11:48:37;;;;;;;7.13;1.20;;;26.60;85.50;;;;;;6189914;23;20203;-71
2023/08/13 11:51:13;;;;;;;5.72;1.05;;;26.10;91.40;;;;;;6191182;23;20000;-72
2023/08/13 11:53:46;;;;;;;5.35;0.70;;;26.60;96.60;;;;;;6165787;23;20013;-71
2023/08/13 11:56:13;;;;;;;4.65;0.90;;;26.50;95.10;;;;;;6189924;23;20504;-72
2023/08/13 11:58:39;;;;;;;4.57;0.93;;;26.00;94.50;;;;;;6183417;23;20854;-71
2023/08/13 12:01:05;;;;;;;3.65;0.98;;;25.70;93.60;;;;;;6184756;23;20731;-71
2023/08/13 12:03:35;;;;;;;7.30;1.20;;;24.90;95.70;;;;;;6188097;23;20095;-71
2023/08/13 12:06:01;;;;;;;4.03;0.80;;;24.90;97.00;;;;;;6162496;23;20314;-71
2023/08/13 12:08:29;;;;;;;6.70;1.25;;;25.10;99.00;;;;;;6189041;23;20122;-72
2023/08/13 12:10:57;;;;;;;3.38;0.82;;;25.60;99.30;;;;;;6191945;23;20030;-71
2023/08/13 12:13:23;;;;;;;4.18;1.10;;;25.90;98.70;;;;;;6167234;23;20008;-72
2023/08/13 12:15:49;;;;;;;7.80;1.23;;;26.10;96.40;;;;;;6191419;23;20005;-72
2023/08/13 12:18:15;;;;;;;5.53;0.90;;;26.30;96.70;;;;;;6192561;23;20009;-72
2023/08/13 12:20:40;;;;;;;4.85;1.10;;;26.30;96.40;;;;;;6190630;23;20709;-72
2023/08/13 12:23:06;;;;;;;4.88;1.00;;;25.70;96.00;;;;;;6192110;23;20096;-71
2023/08/13 12:25:31;;;;;;;8.95;1.27;;;25.90;98.60;;;;;;6190383;23;20005;-72
2023/08/13 12:27:57;;;;;;;6.25;0.95;;;26.20;97.40;;;;;;6190857;23;20027;-72
2023/08/13 12:30:23;;;;;;;7.20;1.23;;;26.60;96.90;;;;;;6189293;23;20005;-72
2023/08/13 12:32:49;;;;;;;7.05;0.95;;;26.90;96.80;;;;;;6191008;23;20432;-71
2023/08/13 12:35:14;;;;;;;9.38;1.40;;;25.90;94.10;;;;;;6193001;23;20338;-72
2023/08/13 12:37:40;;;;;;;6.45;1.00;;;25.90;97.50;;;;;;6193915;23;20063;-72